Marbury, Alabama
Current Conditions -  °F | °C
As of 2:35 PM on Saturday 20 Dec 2014 (Local Time) from K1A9 Reporting Station
Overcast Overcast  
Wind Chill: 51°   Ceiling: 1400
Heat Index: 51°   Visibility: 10mi
Dew Point: 46°   Wind: 6mph
Humidity: 83%   Direction: 350°N
Pressure: 30.14"   Gusts: NA
Location:  32.7°N, 86.47°W
Report Text: K1A9 202035Z AUTO 35005KT 10SM OVC014 11/08 A3014 RMK AO2 T01070079
Loading
Personal Weather Stations






























Interactive Weather Map New forecast layout! Learn more

10-Day Weather Forecast

Advertisements
Track Severe Weather on mobile